Time;durP1;ratioP1;P1;durP2;ratioP2;P2;SDS_P1;SDS_P2;PMS_P1;PMS_P2;Temp;Humidity;BMP_temperature;BMP_pressure;BME280_temperature;BME280_humidity;BME280_pressure;Samples;Min_cycle;Max_cycle;Signal;HPM_P1;HPM_P2
2021/11/14 00:00:07;;;;;;;44.85;26.52;;;10.20;99.90;;;;;;4994810;28;20073;-61
2021/11/14 00:02:32;;;;;;;39.15;24.63;;;10.20;99.90;;;;;;4994442;28;20038;-61
2021/11/14 00:04:58;;;;;;;41.25;25.52;;;10.20;99.90;;;;;;4994735;28;20030;-61
2021/11/14 00:07:23;;;;;;;36.35;22.75;;;10.20;99.90;;;;;;4994503;28;20046;-61
2021/11/14 00:09:49;;;;;;;30.35;20.38;;;10.30;99.90;;;;;;4994092;28;20114;-61
2021/11/14 00:12:15;;;;;;;29.90;20.73;;;10.30;99.90;;;;;;4994217;28;20018;-61
2021/11/14 00:14:40;;;;;;;29.85;20.30;;;10.30;99.90;;;;;;4994448;28;20042;-60
2021/11/14 00:17:06;;;;;;;27.30;20.05;;;10.20;99.90;;;;;;4994133;28;20030;-61
2021/11/14 00:19:31;;;;;;;30.23;21.45;;;10.30;99.90;;;;;;4994371;28;20470;-61
2021/11/14 00:21:57;;;;;;;26.05;19.42;;;10.20;99.90;;;;;;4962927;28;20026;-61
2021/11/14 00:24:23;;;;;;;25.08;18.13;;;10.20;99.90;;;;;;4994082;28;20026;-61
2021/11/14 00:26:49;;;;;;;23.60;17.35;;;10.30;99.90;;;;;;4994259;28;20028;-61
2021/11/14 00:29:14;;;;;;;22.63;17.40;;;10.30;99.90;;;;;;4994166;28;20097;-61
2021/11/14 00:31:40;;;;;;;25.17;18.50;;;10.30;99.90;;;;;;4994120;28;20522;-61
2021/11/14 00:34:06;;;;;;;25.15;18.95;;;10.30;99.90;;;;;;4994167;28;20562;-61
2021/11/14 00:36:37;;;;;;;25.10;18.45;;;10.30;99.90;;;;;;4993980;28;20154;-61
2021/11/14 00:39:06;;;;;;;24.40;18.00;;;10.30;99.90;;;;;;4993930;28;20124;-60
2021/11/14 00:41:32;;;;;;;22.05;16.77;;;10.20;99.90;;;;;;4994095;28;20026;-61
2021/11/14 00:43:58;;;;;;;25.27;19.75;;;10.20;99.90;;;;;;4993734;28;20401;-61
2021/11/14 00:46:23;;;;;;;24.60;18.10;;;10.20;99.90;;;;;;4993697;28;20463;-60
2021/11/14 00:48:49;;;;;;;23.98;18.48;;;10.20;99.90;;;;;;4993765;28;20027;-60
2021/11/14 00:51:24;;;;;;;23.38;17.13;;;10.20;99.90;;;;;;4993752;28;20045;-60
2021/11/14 00:53:49;;;;;;;25.95;17.17;;;10.20;99.90;;;;;;4993926;28;20030;-61
2021/11/14 00:56:15;;;;;;;21.52;15.55;;;10.20;99.90;;;;;;4993688;28;20122;-61
2021/11/14 00:58:40;;;;;;;22.50;15.70;;;10.20;99.90;;;;;;4993653;28;20496;-61
2021/11/14 01:01:06;;;;;;;22.27;16.15;;;10.20;99.90;;;;;;4993674;28;20038;-60
2021/11/14 01:03:32;;;;;;;21.63;15.68;;;10.20;99.90;;;;;;4975941;28;20022;-61
2021/11/14 01:05:58;;;;;;;23.60;16.38;;;10.20;99.90;;;;;;4994789;28;20467;-61
2021/11/14 01:08:28;;;;;;;26.15;18.30;;;10.20;99.90;;;;;;5013201;28;20474;-61
2021/11/14 01:10:54;;;;;;;;;;;10.20;99.90;;;;;;5013818;28;20018;-61
2021/11/14 01:13:20;;;;;;;24.83;17.67;;;10.10;99.90;;;;;;5012927;28;19913;-60
2021/11/14 01:15:48;;;;;;;23.08;16.88;;;10.10;99.90;;;;;;5012993;28;20033;-61
2021/11/14 01:18:15;;;;;;;23.42;16.95;;;10.10;99.90;;;;;;4979778;28;20037;-61
2021/11/14 01:20:44;;;;;;;22.10;16.05;;;10.10;99.90;;;;;;4975941;28;20478;-61
2021/11/14 01:23:11;;;;;;;22.88;16.23;;;10.10;99.90;;;;;;4992387;28;20073;-60
2021/11/14 01:25:39;;;;;;;20.20;14.95;;;10.10;99.90;;;;;;4993230;28;20422;-60
2021/11/14 01:28:05;;;;;;;22.30;16.40;;;10.10;99.90;;;;;;4975612;28;20109;-60
2021/11/14 01:30:34;;;;;;;20.17;14.43;;;10.10;99.90;;;;;;4993177;28;20058;-61
2021/11/14 01:33:01;;;;;;;21.52;15.43;;;10.20;99.90;;;;;;4992792;28;20029;-61
2021/11/14 01:35:28;;;;;;;21.35;15.38;;;10.20;99.90;;;;;;4993000;28;20030;-61
2021/11/14 01:37:54;;;;;;;27.45;18.95;;;10.10;99.90;;;;;;4992946;28;20044;-60
2021/11/14 01:40:25;;;;;;;24.08;17.20;;;10.10;99.90;;;;;;4992890;28;20045;-60
2021/11/14 01:42:51;;;;;;;23.98;16.65;;;10.10;99.90;;;;;;4993695;28;20054;-61
2021/11/14 01:45:18;;;;;;;22.33;15.60;;;10.10;99.90;;;;;;4993096;28;20470;-61
2021/11/14 01:47:44;;;;;;;20.67;14.88;;;10.10;99.90;;;;;;4992854;28;20130;-61
2021/11/14 01:50:12;;;;;;;23.98;15.80;;;10.10;99.90;;;;;;4992756;28;20050;-61
2021/11/14 01:52:39;;;;;;;19.23;14.07;;;10.10;99.90;;;;;;4992896;28;20509;-61
2021/11/14 01:55:05;;;;;;;22.10;15.77;;;10.10;99.90;;;;;;4992740;28;20026;-61
2021/11/14 01:57:31;;;;;;;22.20;15.30;;;10.10;99.90;;;;;;4992353;28;20042;-61
2021/11/14 01:59:57;;;;;;;20.80;14.60;;;10.10;99.90;;;;;;4992021;28;20387;-61
2021/11/14 02:02:23;;;;;;;19.48;14.32;;;10.10;99.90;;;;;;4991539;28;20026;-61
2021/11/14 02:04:49;;;;;;;18.25;13.35;;;10.10;99.90;;;;;;4992026;28;20034;-60
2021/11/14 02:07:16;;;;;;;20.05;14.05;;;10.10;99.90;;;;;;4992448;28;20042;-61
2021/11/14 02:09:43;;;;;;;19.90;13.32;;;10.10;99.90;;;;;;4992707;28;20030;-61
2021/11/14 02:12:09;;;;;;;18.35;13.10;;;10.10;99.90;;;;;;4992800;28;20029;-61
2021/11/14 02:14:34;;;;;;;16.80;12.55;;;10.10;99.90;;;;;;4992567;28;20026;-61
2021/11/14 02:17:01;;;;;;;16.55;11.57;;;10.10;99.90;;;;;;4992421;28;20034;-61
2021/11/14 02:19:28;;;;;;;18.08;12.73;;;10.10;99.90;;;;;;4992270;28;20089;-61
2021/11/14 02:21:54;;;;;;;18.60;12.48;;;10.10;99.90;;;;;;4992681;28;20030;-61
2021/11/14 02:24:20;;;;;;;20.17;14.05;;;10.10;99.90;;;;;;4975007;28;20117;-61
2021/11/14 02:26:47;;;;;;;20.67;14.10;;;10.00;99.90;;;;;;4992444;28;20042;-61
2021/11/14 02:29:13;;;;;;;20.25;14.30;;;10.00;99.90;;;;;;4992365;28;20030;-61
2021/11/14 02:31:38;;;;;;;19.27;13.30;;;10.00;99.90;;;;;;4992460;28;20545;-61
2021/11/14 02:34:04;;;;;;;19.05;12.98;;;10.00;99.90;;;;;;4993738;28;20035;-61
2021/11/14 02:36:30;;;;;;;18.58;13.15;;;10.00;99.90;;;;;;4996043;28;20065;-60
2021/11/14 02:38:56;;;;;;;20.38;12.98;;;10.00;99.90;;;;;;4996362;28;20060;-61
2021/11/14 02:41:23;;;;;;;16.35;12.00;;;10.00;99.90;;;;;;4996171;28;20121;-61
2021/11/14 02:43:50;;;;;;;20.17;12.93;;;10.00;99.90;;;;;;4996027;28;20122;-61
2021/11/14 02:46:16;;;;;;;20.45;13.43;;;10.00;99.90;;;;;;4996139;28;20154;-61
2021/11/14 02:48:41;;;;;;;18.88;12.80;;;10.00;99.90;;;;;;4996143;28;20042;-61
2021/11/14 02:51:16;;;;;;;16.88;11.32;;;10.00;99.90;;;;;;4995890;28;20030;-61
2021/11/14 02:53:43;;;;;;;17.30;11.93;;;10.00;99.90;;;;;;4996036;28;20101;-61
2021/11/14 02:56:09;;;;;;;15.82;11.63;;;10.00;99.90;;;;;;4995986;28;20026;-61
2021/11/14 02:58:36;;;;;;;18.23;12.18;;;9.90;99.90;;;;;;4995711;28;20057;-60
2021/11/14 03:01:05;;;;;;;15.55;10.77;;;10.00;99.90;;;;;;4995899;28;20096;-61
2021/11/14 03:03:32;;;;;;;16.27;11.73;;;10.00;99.90;;;;;;4995742;28;20101;-61
2021/11/14 03:05:58;;;;;;;15.50;11.55;;;9.90;99.90;;;;;;4997125;28;20482;-61
2021/11/14 03:08:23;;;;;;;17.40;12.82;;;9.90;99.90;;;;;;5015246;28;20041;-61
2021/11/14 03:10:49;;;;;;;16.52;12.02;;;9.90;99.90;;;;;;5015219;28;20072;-61
2021/11/14 03:13:18;;;;;;;18.10;12.60;;;9.90;99.90;;;;;;5015223;28;20062;-60
2021/11/14 03:15:49;;;;;;;16.63;12.27;;;9.90;99.90;;;;;;5015184;28;20042;-61
2021/11/14 03:18:15;;;;;;;21.00;15.02;;;9.90;99.90;;;;;;4981851;28;20033;-61
2021/11/14 03:20:44;;;;;;;19.92;14.93;;;9.90;99.90;;;;;;4995355;28;20030;-61
2021/11/14 03:23:11;;;;;;;18.95;14.25;;;9.90;99.90;;;;;;4994730;28;20041;-61
2021/11/14 03:25:37;;;;;;;23.55;16.23;;;9.90;99.90;;;;;;4996011;28;20074;-61
2021/11/14 03:28:04;;;;;;;22.90;15.70;;;9.90;99.90;;;;;;4995294;28;20026;-60
2021/11/14 03:30:32;;;;;;;20.52;13.85;;;9.90;99.90;;;;;;4995240;28;20434;-60
2021/11/14 03:32:59;;;;;;;19.38;13.27;;;9.90;99.90;;;;;;4993258;28;20027;-60
2021/11/14 03:35:25;;;;;;;16.88;12.18;;;9.90;99.90;;;;;;4995140;28;20392;-61
2021/11/14 03:37:51;;;;;;;17.85;13.18;;;9.90;99.90;;;;;;4978010;28;20033;-61
2021/11/14 03:40:18;;;;;;;20.95;14.70;;;9.90;99.90;;;;;;4994993;28;20057;-61
2021/11/14 03:42:44;;;;;;;20.85;14.50;;;9.90;99.90;;;;;;4977697;28;20042;-61
2021/11/14 03:45:10;;;;;;;19.63;14.73;;;9.90;99.90;;;;;;4994424;28;20030;-61
2021/11/14 03:47:38;;;;;;;21.33;14.70;;;9.90;99.90;;;;;;4994785;28;20025;-60
2021/11/14 03:50:04;;;;;;;21.75;15.48;;;9.90;99.90;;;;;;4976043;28;20104;-60
2021/11/14 03:52:30;;;;;;;22.58;15.10;;;9.90;99.90;;;;;;4994712;28;20031;-60
2021/11/14 03:54:55;;;;;;;25.75;16.45;;;9.90;99.90;;;;;;4992569;28;20032;-61
2021/11/14 03:57:21;;;;;;;27.15;16.83;;;9.90;99.90;;;;;;4994788;28;20077;-61
2021/11/14 03:59:46;;;;;;;28.77;18.40;;;9.90;99.90;;;;;;4994869;28;20084;-61
2021/11/14 04:02:12;;;;;;;27.05;17.75;;;9.90;99.90;;;;;;4977322;28;20081;-61
2021/11/14 04:04:37;;;;;;;24.90;16.23;;;9.90;99.90;;;;;;4994688;28;20093;-61
2021/11/14 04:07:03;;;;;;;23.77;15.68;;;9.90;99.90;;;;;;4994358;28;20050;-61
2021/11/14 04:09:29;;;;;;;23.73;15.25;;;9.90;99.90;;;;;;4994471;28;20109;-61
2021/11/14 04:11:54;;;;;;;24.63;15.40;;;9.90;99.90;;;;;;4994699;28;20023;-61
2021/11/14 04:14:20;;;;;;;26.10;16.10;;;10.00;99.90;;;;;;4977159;28;20129;-61
2021/11/14 04:16:46;;;;;;;27.08;17.45;;;10.00;99.90;;;;;;4994471;28;20057;-61
2021/11/14 04:19:12;;;;;;;30.63;19.27;;;10.00;99.90;;;;;;4994424;28;20034;-61
2021/11/14 04:21:38;;;;;;;34.50;20.80;;;10.00;99.90;;;;;;4994161;28;20034;-61
2021/11/14 04:24:04;;;;;;;34.85;22.50;;;10.00;99.90;;;;;;4994307;28;20026;-61
2021/11/14 04:26:30;;;;;;;37.78;23.02;;;10.00;99.90;;;;;;4994235;28;20053;-60
2021/11/14 04:28:56;;;;;;;36.00;22.83;;;10.00;99.90;;;;;;4994330;28;20050;-61
2021/11/14 04:31:22;;;;;;;34.33;21.77;;;10.00;99.90;;;;;;4994122;28;20050;-61
2021/11/14 04:33:48;;;;;;;41.13;25.05;;;10.00;99.90;;;;;;4994270;28;20113;-60
2021/11/14 04:36:14;;;;;;;44.40;26.70;;;10.00;99.90;;;;;;4993997;28;20072;-60
2021/11/14 04:38:40;;;;;;;43.38;25.02;;;10.00;99.90;;;;;;4993850;28;20497;-61
2021/11/14 04:41:05;;;;;;;38.70;24.58;;;10.00;99.90;;;;;;4994013;28;20065;-61
2021/11/14 04:43:31;;;;;;;39.83;23.73;;;10.00;99.90;;;;;;4993929;28;20439;-61
2021/11/14 04:45:56;;;;;;;38.22;23.63;;;10.00;99.90;;;;;;4994052;28;20449;-61
2021/11/14 04:48:23;;;;;;;35.90;22.25;;;10.00;99.90;;;;;;4976378;28;20030;-61
2021/11/14 04:50:49;;;;;;;27.13;18.10;;;10.00;99.90;;;;;;4993789;28;20022;-61
2021/11/14 04:53:15;;;;;;;32.78;19.70;;;10.00;99.90;;;;;;4993552;28;20390;-61
2021/11/14 04:55:42;;;;;;;42.15;25.42;;;10.00;99.90;;;;;;4993742;28;20057;-61
2021/11/14 04:58:10;;;;;;;39.35;24.33;;;10.00;99.90;;;;;;4973835;28;20068;-61
2021/11/14 05:00:39;;;;;;;37.92;23.35;;;10.00;99.90;;;;;;4993587;28;20379;-60
2021/11/14 05:03:05;;;;;;;38.38;22.63;;;10.00;99.90;;;;;;4993494;28;20128;-61
2021/11/14 05:05:31;;;;;;;39.67;23.40;;;10.00;99.90;;;;;;4993528;28;20117;-60
2021/11/14 05:07:57;;;;;;;38.35;22.58;;;10.00;99.90;;;;;;5011024;28;20038;-60
2021/11/14 05:10:22;;;;;;;39.40;22.58;;;10.00;99.90;;;;;;5012975;28;20104;-61
2021/11/14 05:12:48;;;;;;;40.45;23.55;;;10.00;99.90;;;;;;5013054;28;20037;-61
2021/11/14 05:15:14;;;;;;;37.85;23.10;;;10.00;99.90;;;;;;4995371;28;20030;-61
2021/11/14 05:17:39;;;;;;;38.63;22.00;;;10.00;99.90;;;;;;5001945;28;20026;-61
2021/11/14 05:20:05;;;;;;;38.35;23.38;;;10.00;99.90;;;;;;4993102;28;20026;-61
2021/11/14 05:22:31;;;;;;;40.35;23.85;;;10.00;99.90;;;;;;4993190;28;20018;-61
2021/11/14 05:24:57;;;;;;;44.33;25.63;;;10.00;99.90;;;;;;4993103;28;20021;-60
2021/11/14 05:27:23;;;;;;;39.65;25.48;;;10.00;99.90;;;;;;4993139;28;20049;-61
2021/11/14 05:29:48;;;;;;;43.72;25.60;;;10.00;99.90;;;;;;4993221;28;20501;-61
2021/11/14 05:32:14;;;;;;;42.88;25.70;;;10.00;99.90;;;;;;4975534;28;20022;-61
2021/11/14 05:34:39;;;;;;;44.97;27.92;;;10.00;99.90;;;;;;4993053;28;20113;-61
2021/11/14 05:37:07;;;;;;;45.10;28.63;;;10.00;99.90;;;;;;4993240;28;20467;-61
2021/11/14 05:39:32;;;;;;;41.80;25.48;;;10.00;99.90;;;;;;4992801;28;20121;-61
2021/11/14 05:41:58;;;;;;;43.10;25.27;;;10.00;99.90;;;;;;4993071;28;20448;-61
2021/11/14 05:44:24;;;;;;;39.25;22.83;;;10.00;99.90;;;;;;4992791;28;20442;-60
2021/11/14 05:46:49;;;;;;;47.28;27.05;;;10.00;99.90;;;;;;4975663;28;20041;-61
2021/11/14 05:49:15;;;;;;;43.72;25.20;;;10.00;99.90;;;;;;4992773;28;20030;-60
2021/11/14 05:51:43;;;;;;;45.08;26.73;;;10.00;99.90;;;;;;4992744;28;20089;-61
2021/11/14 05:54:09;;;;;;;47.05;25.98;;;10.00;99.90;;;;;;4992727;28;20053;-60
2021/11/14 05:56:35;;;;;;;47.70;27.42;;;10.00;99.90;;;;;;4974520;28;20056;-61
2021/11/14 06:01:50;;;;;;;42.10;25.50;;;10.00;99.90;;;;;;4993091;28;20488;-61
2021/11/14 06:04:28;;;;;;;45.47;26.55;;;9.90;99.90;;;;;;4992649;28;20483;-61
2021/11/14 06:06:53;;;;;;;38.05;24.65;;;10.00;99.90;;;;;;4992596;28;20030;-60
2021/11/14 06:09:19;;;;;;;44.15;27.40;;;10.00;99.90;;;;;;4996084;28;20118;-61
2021/11/14 06:11:45;;;;;;;44.80;26.35;;;10.00;99.90;;;;;;4999211;28;20097;-61
2021/11/14 06:14:11;;;;;;;47.45;29.17;;;10.00;99.90;;;;;;4999481;28;20045;-60
2021/11/14 06:16:36;;;;;;;43.33;26.08;;;10.00;99.90;;;;;;4999026;28;20390;-61
2021/11/14 06:19:02;;;;;;;42.72;26.98;;;10.00;99.90;;;;;;4999208;28;20113;-60
2021/11/14 06:21:28;;;;;;;44.28;27.27;;;10.00;99.90;;;;;;4999045;28;20034;-61
2021/11/14 06:23:53;;;;;;;41.78;25.80;;;10.00;99.90;;;;;;4964951;28;20027;-61
2021/11/14 06:26:19;;;;;;;50.25;28.83;;;10.00;99.90;;;;;;4999242;28;20097;-61
2021/11/14 06:28:45;;;;;;;41.25;25.85;;;10.00;99.90;;;;;;4998901;28;20105;-61
2021/11/14 06:31:11;;;;;;;43.08;26.08;;;10.00;99.90;;;;;;4998711;28;20023;-60
2021/11/14 06:33:36;;;;;;;38.90;24.80;;;10.00;99.90;;;;;;4998476;28;20022;-60
2021/11/14 06:36:03;;;;;;;43.92;25.45;;;10.00;99.90;;;;;;4998476;28;20091;-61
2021/11/14 06:38:28;;;;;;;41.30;26.20;;;10.00;99.90;;;;;;4998542;28;20022;-61
2021/11/14 06:40:54;;;;;;;51.55;28.33;;;10.00;99.90;;;;;;4998861;28;20372;-60
2021/11/14 06:43:20;;;;;;;46.22;28.33;;;10.00;99.90;;;;;;4998718;28;20127;-61
2021/11/14 06:45:45;;;;;;;47.45;27.95;;;10.00;99.90;;;;;;4998264;28;20026;-61
2021/11/14 06:48:11;;;;;;;40.50;25.77;;;10.00;99.90;;;;;;4998795;28;20175;-61
2021/11/14 06:50:36;;;;;;;43.47;25.40;;;10.00;99.90;;;;;;4998796;28;20026;-61
2021/11/14 06:53:02;;;;;;;44.90;26.55;;;10.00;99.90;;;;;;4996963;28;20031;-61
2021/11/14 06:55:28;;;;;;;48.17;27.63;;;10.00;99.90;;;;;;4997634;28;20030;-61
2021/11/14 06:57:54;;;;;;;45.33;26.25;;;10.00;99.90;;;;;;4998716;28;20089;-61
2021/11/14 07:00:22;;;;;;;57.85;31.55;;;10.00;99.90;;;;;;4998634;28;20030;-60
2021/11/14 07:02:48;;;;;;;48.50;28.65;;;10.00;99.90;;;;;;4981325;28;20123;-61
2021/11/14 07:05:14;;;;;;;45.80;27.08;;;10.00;99.90;;;;;;4998702;28;20038;-61
2021/11/14 07:07:40;;;;;;;52.35;28.00;;;10.00;99.90;;;;;;4998575;28;20057;-61
2021/11/14 07:10:08;;;;;;;41.63;25.50;;;10.00;99.90;;;;;;4998681;28;20105;-61
2021/11/14 07:12:35;;;;;;;42.72;25.67;;;9.90;99.90;;;;;;4998514;28;20028;-61
2021/11/14 07:15:00;;;;;;;43.38;25.48;;;9.90;99.90;;;;;;4998668;28;20122;-61
2021/11/14 07:17:26;;;;;;;39.90;23.05;;;9.90;99.90;;;;;;4998398;28;20061;-61
2021/11/14 07:19:53;;;;;;;41.47;23.92;;;9.90;99.90;;;;;;4997392;28;20035;-61
2021/11/14 07:22:19;;;;;;;44.22;27.02;;;10.00;99.90;;;;;;4994875;28;20022;-61
2021/11/14 07:24:44;;;;;;;42.67;23.60;;;10.00;99.90;;;;;;4995410;28;20053;-60
2021/11/14 07:27:10;;;;;;;45.45;26.23;;;10.00;99.90;;;;;;4995087;28;20105;-61
2021/11/14 07:29:36;;;;;;;42.38;25.70;;;10.00;99.90;;;;;;4995321;28;20534;-61
2021/11/14 07:32:01;;;;;;;41.95;25.20;;;10.00;99.90;;;;;;4995302;28;20034;-61
2021/11/14 07:34:27;;;;;;;41.92;25.45;;;10.00;99.90;;;;;;4977883;28;20026;-61
2021/11/14 07:36:53;;;;;;;41.83;25.30;;;10.10;99.90;;;;;;4977929;28;20023;-61
2021/11/14 07:39:18;;;;;;;39.55;25.13;;;10.10;99.90;;;;;;4995055;28;20391;-61
2021/11/14 07:41:45;;;;;;;37.97;23.20;;;10.10;99.90;;;;;;4994384;28;20498;-61
2021/11/14 07:44:10;;;;;;;38.45;23.95;;;10.20;99.90;;;;;;4992954;28;20026;-60
2021/11/14 07:46:36;;;;;;;43.58;24.95;;;10.20;99.90;;;;;;4995104;28;20030;-61
2021/11/14 07:49:15;;;;;;;42.15;24.45;;;10.20;99.90;;;;;;4977540;28;20153;-61
2021/11/14 07:52:57;;;;;;;40.47;23.73;;;10.30;99.90;;;;;;4975564;28;20133;-61
2021/11/14 07:55:16;;;;;;;40.75;24.30;;;10.30;99.90;;;;;;4980929;28;20034;-61
2021/11/14 07:57:43;;;;;;;40.03;24.75;;;10.20;99.90;;;;;;4990356;28;20398;-61
2021/11/14 08:00:20;;;;;;;36.63;23.58;;;10.20;99.90;;;;;;4989558;28;20486;-61
2021/11/14 08:02:54;;;;;;;40.17;24.00;;;10.20;99.90;;;;;;4990875;28;20026;-61
2021/11/14 08:05:20;;;;;;;39.53;23.38;;;10.30;99.90;;;;;;4990845;28;20026;-60
2021/11/14 08:07:46;;;;;;;44.38;25.83;;;10.30;99.90;;;;;;4993502;28;20396;-61
2021/11/14 08:10:13;;;;;;;39.80;22.33;;;10.30;99.90;;;;;;4973230;28;20394;-61
2021/11/14 08:15:46;;;;;;;39.17;24.17;;;10.30;99.90;;;;;;4977698;28;20030;-61
2021/11/14 08:18:12;;;;;;;42.03;23.27;;;10.30;99.90;;;;;;4994404;28;20589;-61
2021/11/14 08:20:37;;;;;;;37.63;22.35;;;10.40;99.90;;;;;;4994308;28;20030;-61
2021/11/14 08:23:21;;;;;;;;;;;;;;;;;;;;;
2021/11/14 08:26:28;;;;;;;37.50;21.63;;;10.40;99.90;;;;;;4994571;28;20034;-60
2021/11/14 08:28:53;;;;;;;38.20;22.77;;;10.40;99.90;;;;;;4962388;28;20035;-61
2021/11/14 08:31:21;;;;;;;37.95;22.52;;;10.40;99.90;;;;;;4966123;28;20024;-61
2021/11/14 08:33:49;;;;;;;33.10;20.52;;;10.50;99.90;;;;;;4987809;28;20443;-61
2021/11/14 08:39:14;;;;;;;36.65;21.85;;;10.50;99.90;;;;;;4976092;28;20394;-61
2021/11/14 08:41:40;;;;;;;38.88;22.13;;;10.50;99.90;;;;;;4990844;28;20038;-61
2021/11/14 08:44:06;;;;;;;36.03;20.98;;;10.50;99.90;;;;;;4989446;28;20053;-61
2021/11/14 08:46:32;;;;;;;37.28;21.55;;;10.50;99.90;;;;;;4978010;28;20454;-61
2021/11/14 08:48:59;;;;;;;37.75;22.60;;;10.50;99.90;;;;;;4988849;28;20022;-61
2021/11/14 08:51:44;;;;;;;37.78;23.00;;;10.50;99.90;;;;;;4988701;28;20491;-61
2021/11/14 08:54:10;;;;;;;37.83;22.77;;;10.60;99.90;;;;;;4972238;28;20117;-61
2021/11/14 08:59:41;;;;;;;36.72;21.50;;;10.60;99.90;;;;;;4910161;29;20152;-61
2021/11/14 09:02:06;;;;;;;39.42;23.13;;;10.50;99.90;;;;;;4977961;28;20034;-61
2021/11/14 09:04:32;;;;;;;36.58;21.83;;;10.50;99.90;;;;;;4969428;28;20029;-61
2021/11/14 09:06:59;;;;;;;37.15;21.70;;;10.50;99.90;;;;;;4997501;28;20046;-61
2021/11/14 09:09:25;;;;;;;34.92;20.55;;;10.50;99.90;;;;;;5010126;28;20156;-61
2021/11/14 09:11:51;;;;;;;35.53;20.60;;;10.60;99.90;;;;;;5007040;28;20030;-61
2021/11/14 09:14:18;;;;;;;36.97;21.38;;;10.60;99.90;;;;;;5010147;28;20350;-61
2021/11/14 09:16:46;;;;;;;38.35;21.63;;;10.60;99.90;;;;;;4992385;28;20032;-60
2021/11/14 09:19:11;;;;;;;31.63;19.15;;;10.60;99.90;;;;;;5009059;28;20466;-61
2021/11/14 09:21:38;;;;;;;37.58;21.25;;;10.50;99.90;;;;;;5009932;28;20124;-61
2021/11/14 09:24:04;;;;;;;33.03;19.33;;;10.60;99.90;;;;;;4992517;28;20033;-61
2021/11/14 09:26:40;;;;;;;37.20;20.52;;;10.60;99.90;;;;;;5008190;28;20085;-61
2021/11/14 09:29:07;;;;;;;35.63;19.35;;;10.60;99.90;;;;;;4989947;28;20030;-61
2021/11/14 09:31:33;;;;;;;37.15;20.67;;;10.60;99.90;;;;;;5009967;28;20053;-61
2021/11/14 09:33:59;;;;;;;32.13;18.63;;;10.60;99.90;;;;;;4991618;28;20029;-61
2021/11/14 09:36:32;;;;;;;34.70;19.83;;;10.60;99.90;;;;;;5008141;28;20026;-61
2021/11/14 09:39:04;;;;;;;32.72;19.15;;;10.60;99.90;;;;;;4992186;28;20496;-61
2021/11/14 09:41:31;;;;;;;35.35;20.30;;;10.70;99.90;;;;;;5009781;28;20404;-61
2021/11/14 09:43:57;;;;;;;34.58;19.40;;;10.70;99.90;;;;;;5007765;28;20467;-61
2021/11/14 09:46:22;;;;;;;35.17;19.17;;;10.70;99.90;;;;;;5007298;28;20036;-61
2021/11/14 09:48:51;;;;;;;33.50;18.48;;;10.70;99.90;;;;;;4990156;28;20022;-61
2021/11/14 09:51:17;;;;;;;31.05;16.83;;;10.70;99.90;;;;;;5007547;28;20085;-61
2021/11/14 09:53:43;;;;;;;31.70;17.63;;;10.70;99.90;;;;;;5006862;28;20117;-61
2021/11/14 09:56:09;;;;;;;28.25;16.75;;;10.80;99.90;;;;;;5008569;28;20025;-61
2021/11/14 09:58:38;;;;;;;26.30;15.23;;;10.80;99.90;;;;;;5009891;28;20140;-61
2021/11/14 10:01:05;;;;;;;31.13;17.92;;;10.90;99.90;;;;;;5009177;28;20539;-61
2021/11/14 10:03:34;;;;;;;30.30;17.33;;;10.90;99.90;;;;;;4990416;28;20288;-61
2021/11/14 10:06:00;;;;;;;29.63;16.85;;;10.90;99.90;;;;;;5009617;28;20026;-61
2021/11/14 10:08:51;;;;;;;34.25;18.08;;;10.90;99.90;;;;;;4994575;28;20117;-61
2021/11/14 10:15:37;;;;;;;31.17;16.52;;;11.00;99.90;;;;;;4933390;28;20031;-61
2021/11/14 10:18:06;;;;;;;33.47;17.65;;;11.00;99.90;;;;;;4924659;29;20031;-61
2021/11/14 10:20:36;;;;;;;30.40;16.35;;;10.90;99.90;;;;;;5006762;28;20073;-61
2021/11/14 10:23:36;;;;;;;27.05;16.45;;;11.00;99.90;;;;;;5011657;28;20096;-61
2021/11/14 10:26:07;;;;;;;32.42;17.40;;;11.00;99.90;;;;;;4974978;28;20045;-61
2021/11/14 10:28:33;;;;;;;30.00;17.25;;;11.00;99.90;;;;;;5001725;28;20023;-61
2021/11/14 10:31:20;;;;;;;;;;;;;;;;;;;;;
2021/11/14 10:37:00;;;;;;;32.08;16.90;;;11.00;99.90;;;;;;4982183;28;20037;-61
2021/11/14 10:39:35;;;;;;;30.05;15.85;;;11.00;99.90;;;;;;5007771;28;20034;-61
2021/11/14 10:42:11;;;;;;;31.05;17.38;;;11.10;99.90;;;;;;5009766;28;20042;-61
2021/11/14 10:44:58;;;;;;;26.83;16.23;;;11.10;99.90;;;;;;5010668;28;20382;-61
2021/11/14 10:47:25;;;;;;;24.40;14.27;;;11.20;99.90;;;;;;5003824;28;20397;-61
2021/11/14 10:50:04;;;;;;;29.38;16.58;;;11.20;99.90;;;;;;5010998;28;20018;-61
2021/11/14 10:52:31;;;;;;;30.27;16.40;;;11.20;99.90;;;;;;5006597;28;20422;-61
2021/11/14 10:55:00;;;;;;;23.15;14.63;;;11.20;99.90;;;;;;5006180;28;20025;-61
2021/11/14 10:57:28;;;;;;;29.25;16.13;;;11.20;99.90;;;;;;5015398;28;20112;-61
2021/11/14 10:59:54;;;;;;;25.98;15.77;;;11.20;99.90;;;;;;5010961;28;20092;-62
2021/11/14 11:02:22;;;;;;;30.55;15.77;;;11.20;99.90;;;;;;5009785;28;20438;-61
2021/11/14 11:04:48;;;;;;;32.03;17.73;;;11.20;99.90;;;;;;4996395;28;20029;-62
2021/11/14 11:07:15;;;;;;;29.13;15.85;;;11.30;99.90;;;;;;4997375;28;20514;-61
2021/11/14 11:09:42;;;;;;;26.25;14.88;;;11.30;99.90;;;;;;5014846;28;20030;-62
2021/11/14 11:12:35;;;;;;;30.48;16.35;;;11.30;99.90;;;;;;5010715;28;20091;-62
2021/11/14 11:15:03;;;;;;;29.60;16.10;;;11.40;99.90;;;;;;5008042;28;20088;-62
2021/11/14 11:17:41;;;;;;;28.42;15.75;;;11.40;99.90;;;;;;5006337;28;20545;-61
2021/11/14 11:20:10;;;;;;;33.75;18.13;;;11.40;99.90;;;;;;5012257;28;20045;-61
2021/11/14 11:23:03;;;;;;;29.08;15.68;;;11.40;99.90;;;;;;4994852;28;20040;-61
2021/11/14 11:25:38;;;;;;;29.15;16.75;;;11.40;99.90;;;;;;4993721;28;20478;-62
2021/11/14 11:28:23;;;;;;;31.95;17.10;;;11.50;99.90;;;;;;5012283;28;20470;-61
2021/11/14 11:31:04;;;;;;;34.28;17.35;;;11.50;99.90;;;;;;5006992;28;20041;-62
2021/11/14 11:33:34;;;;;;;31.83;16.75;;;11.50;99.90;;;;;;5009821;28;20038;-61
2021/11/14 11:36:04;;;;;;;31.52;16.42;;;11.50;99.90;;;;;;5012188;28;20048;-61
2021/11/14 11:38:30;;;;;;;32.55;17.70;;;11.50;99.90;;;;;;5009772;28;20053;-61
2021/11/14 11:40:59;;;;;;;28.98;16.52;;;11.50;99.90;;;;;;5003008;28;20061;-61
2021/11/14 11:43:26;;;;;;;32.40;17.47;;;11.50;99.90;;;;;;5010472;28;20044;-61
2021/11/14 11:46:04;;;;;;;33.47;19.85;;;11.60;99.90;;;;;;5013366;28;20081;-61
2021/11/14 11:48:37;;;;;;;32.42;17.92;;;11.60;99.90;;;;;;5011477;28;20014;-62
2021/11/14 11:51:20;;;;;;;29.70;17.75;;;11.60;99.90;;;;;;5009326;28;20057;-62
2021/11/14 11:54:01;;;;;;;30.95;18.42;;;11.60;99.90;;;;;;5012789;28;20381;-62
2021/11/14 11:56:47;;;;;;;28.75;17.55;;;11.60;99.90;;;;;;4987744;28;20033;-62
2021/11/14 11:59:35;;;;;;;27.75;17.40;;;11.60;99.90;;;;;;5008822;28;20022;-62
2021/11/14 12:02:07;;;;;;;35.53;18.85;;;11.60;99.90;;;;;;5011859;28;20025;-62
2021/11/14 12:09:15;;;;;;;29.60;17.10;;;11.60;99.90;;;;;;4971927;28;20049;-62
2021/11/14 12:11:35;;;;;;;28.23;15.93;;;11.60;99.90;;;;;;5005769;28;20064;-62
2021/11/14 12:14:24;;;;;;;29.33;17.88;;;11.70;99.90;;;;;;5008555;28;20037;-62
2021/11/14 12:17:09;;;;;;;32.83;18.85;;;11.70;99.90;;;;;;5009504;28;20437;-62
2021/11/14 12:20:26;;;;;;;33.58;19.48;;;11.80;99.90;;;;;;4995105;28;20120;-61
2021/11/14 12:22:54;;;;;;;28.27;17.15;;;11.80;99.90;;;;;;5005316;28;20068;-62
2021/11/14 12:25:40;;;;;;;35.33;20.25;;;11.80;99.90;;;;;;5009373;28;20497;-62
2021/11/14 12:28:33;;;;;;;32.80;19.23;;;11.80;99.70;;;;;;5010248;28;20033;-61
2021/11/14 12:34:30;;;;;;;29.10;17.10;;;11.80;99.60;;;;;;4998084;28;20113;-62
2021/11/14 12:37:07;;;;;;;34.40;19.73;;;11.80;99.60;;;;;;5010205;28;20026;-62
2021/11/14 12:39:54;;;;;;;29.63;18.90;;;11.80;99.40;;;;;;5010237;28;20486;-62
2021/11/14 12:43:01;;;;;;;;;;;;;;;;;;;;;
2021/11/14 12:45:28;;;;;;;34.92;18.58;;;11.90;99.20;;;;;;5009154;28;20030;-62
2021/11/14 12:50:43;;;;;;;31.67;18.15;;;11.90;99.40;;;;;;4959850;28;20076;-62
2021/11/14 12:53:18;;;;;;;30.73;17.95;;;11.90;99.40;;;;;;5009908;28;20429;-62
2021/11/14 12:55:53;;;;;;;34.60;20.17;;;12.00;99.40;;;;;;4996105;28;20084;-62
2021/11/14 12:58:19;;;;;;;31.52;18.00;;;12.00;99.40;;;;;;5009981;28;20121;-62
2021/11/14 13:00:49;;;;;;;34.70;20.85;;;12.00;99.50;;;;;;5009833;28;20549;-62
2021/11/14 13:06:55;;;;;;;35.13;19.20;;;11.90;99.30;;;;;;4996213;28;20289;-62
2021/11/14 13:09:22;;;;;;;37.70;20.35;;;12.00;99.30;;;;;;4993301;28;20042;-62
2021/11/14 13:12:05;;;;;;;35.20;20.65;;;11.90;99.20;;;;;;5009370;28;20025;-62